Time;durP1;ratioP1;P1;durP2;ratioP2;P2;SDS_P1;SDS_P2;PMS_P1;PMS_P2;Temp;Humidity;BMP_temperature;BMP_pressure;BME280_temperature;BME280_humidity;BME280_pressure;Samples;Min_cycle;Max_cycle;Signal;HPM_P1;HPM_P2
2023/01/07 00:01:26;;;;;;;63.10;33.22;;;9.40;99.90;;;;;;4974162;28;20050;-77
2023/01/07 00:03:52;;;;;;;73.30;32.53;;;9.50;99.90;;;;;;4973827;28;20054;-77
2023/01/07 00:06:24;;;;;;;72.72;33.97;;;9.50;99.90;;;;;;4957978;28;20069;-77
2023/01/07 00:08:52;;;;;;;77.32;35.10;;;9.50;99.90;;;;;;4973827;28;20400;-76
2023/01/07 00:11:20;;;;;;;67.65;32.03;;;9.50;99.90;;;;;;4973341;28;20042;-76
2023/01/07 00:13:51;;;;;;;89.72;45.20;;;9.50;99.90;;;;;;4973612;28;20133;-78
2023/01/07 00:16:19;;;;;;;84.38;40.15;;;9.60;99.90;;;;;;4972801;28;20087;-77
2023/01/07 00:18:45;;;;;;;87.97;35.75;;;9.60;99.90;;;;;;4985005;28;20107;-79
2023/01/07 00:21:13;;;;;;;93.38;35.67;;;9.50;99.90;;;;;;4977412;28;20141;-77
2023/01/07 00:23:40;;;;;;;81.32;33.65;;;9.60;99.90;;;;;;5002969;28;20054;-77
2023/01/07 00:26:18;;;;;;;113.70;52.38;;;9.60;99.90;;;;;;4968609;28;20048;-76
2023/01/07 00:28:46;;;;;;;98.32;37.55;;;9.60;99.90;;;;;;4976209;28;20064;-76
2023/01/07 00:31:17;;;;;;;87.57;34.10;;;9.60;99.90;;;;;;4976339;28;20471;-77
2023/01/07 00:33:50;;;;;;;99.20;34.50;;;9.70;99.90;;;;;;4979241;28;20628;-76
2023/01/07 00:36:16;;;;;;;88.80;33.03;;;9.70;99.90;;;;;;4980651;28;20508;-78
2023/01/07 00:38:42;;;;;;;84.05;32.63;;;9.70;99.90;;;;;;4972575;28;20656;-76
2023/01/07 00:41:09;;;;;;;77.25;32.25;;;9.70;99.90;;;;;;4968978;28;20096;-76
2023/01/07 00:43:35;;;;;;;78.32;31.92;;;9.70;99.90;;;;;;4990658;28;20072;-77
2023/01/07 00:46:01;;;;;;;97.80;34.55;;;9.80;99.90;;;;;;4983337;28;20053;-77
2023/01/07 00:48:27;;;;;;;72.68;31.27;;;9.80;99.90;;;;;;4973434;28;20055;-79
2023/01/07 00:50:53;;;;;;;87.65;33.83;;;9.80;99.90;;;;;;4982320;28;20050;-78
2023/01/07 00:53:19;;;;;;;79.57;33.47;;;9.80;99.90;;;;;;4963806;28;20137;-77
2023/01/07 00:55:47;;;;;;;85.95;33.53;;;9.90;99.90;;;;;;4980576;28;20492;-77
2023/01/07 00:58:21;;;;;;;88.18;32.97;;;9.90;99.90;;;;;;4963085;28;20393;-76
2023/01/07 01:00:47;;;;;;;98.78;34.80;;;9.90;99.90;;;;;;4992244;28;20616;-78
2023/01/07 01:03:14;;;;;;;107.57;34.67;;;9.90;99.90;;;;;;4986108;28;20053;-76
2023/01/07 01:05:40;;;;;;;77.20;31.20;;;10.00;99.90;;;;;;4969889;28;20058;-76
2023/01/07 01:08:07;;;;;;;76.20;31.08;;;10.00;99.90;;;;;;4969834;28;20113;-76
2023/01/07 01:10:33;;;;;;;76.07;32.85;;;10.00;99.90;;;;;;4973257;28;20113;-76
2023/01/07 01:12:59;;;;;;;72.00;31.10;;;10.00;99.90;;;;;;4941250;28;20042;-76
2023/01/07 01:15:25;;;;;;;75.07;31.30;;;10.10;99.90;;;;;;4976156;28;20042;-76
2023/01/07 01:17:51;;;;;;;70.07;31.15;;;10.10;99.90;;;;;;4984826;28;20546;-77
2023/01/07 01:20:18;;;;;;;73.85;31.52;;;10.10;99.90;;;;;;4973216;28;20062;-76
2023/01/07 01:22:44;;;;;;;68.63;29.50;;;10.20;99.90;;;;;;4979761;28;20097;-76
2023/01/07 01:25:10;;;;;;;81.25;31.33;;;10.20;99.90;;;;;;4979621;28;20093;-77
2023/01/07 01:27:36;;;;;;;75.93;31.38;;;10.20;99.90;;;;;;4973161;28;20047;-76
2023/01/07 01:30:04;;;;;;;76.43;31.83;;;10.20;99.90;;;;;;4973541;28;20125;-76
2023/01/07 01:32:30;;;;;;;68.93;30.00;;;10.20;99.90;;;;;;4973022;28;20057;-82
2023/01/07 01:34:55;;;;;;;81.38;31.48;;;10.20;99.90;;;;;;4954142;28;20054;-77
2023/01/07 01:37:21;;;;;;;71.60;30.52;;;10.30;99.90;;;;;;4975965;28;20073;-77
2023/01/07 01:39:47;;;;;;;73.13;30.58;;;10.30;99.90;;;;;;4946778;28;20122;-76
2023/01/07 01:42:19;;;;;;;60.80;29.05;;;10.30;99.90;;;;;;4991892;28;20049;-75
2023/01/07 01:44:55;;;;;;;73.25;30.45;;;10.30;99.90;;;;;;4974917;28;20057;-76
2023/01/07 01:47:30;;;;;;;66.03;30.33;;;10.30;99.90;;;;;;4992103;28;20062;-78
2023/01/07 01:50:23;;;;;;;74.18;30.92;;;10.30;99.90;;;;;;4986412;28;20468;-77
2023/01/07 01:53:04;;;;;;;77.07;31.38;;;10.40;99.90;;;;;;4984802;28;20054;-76
2023/01/07 01:55:34;;;;;;;60.38;28.25;;;10.30;99.90;;;;;;4973877;28;20054;-77
2023/01/07 01:58:04;;;;;;;71.60;31.63;;;10.40;99.90;;;;;;4956603;28;20117;-76
2023/01/07 02:00:31;;;;;;;73.95;31.52;;;10.40;99.90;;;;;;4981106;28;20065;-76
2023/01/07 02:02:58;;;;;;;66.63;31.45;;;10.40;99.90;;;;;;4992084;28;20511;-77
2023/01/07 02:05:28;;;;;;;72.82;31.80;;;10.40;99.90;;;;;;4980601;28;20051;-76
2023/01/07 02:07:54;;;;;;;76.65;33.78;;;10.40;99.90;;;;;;4989729;28;20701;-75
2023/01/07 02:10:22;;;;;;;63.85;31.45;;;10.40;99.90;;;;;;4980233;28;20042;-76
2023/01/07 02:13:16;;;;;;;78.93;32.97;;;10.40;99.90;;;;;;4989744;28;20433;-75
2023/01/07 02:16:12;;;;;;;66.13;31.77;;;10.40;99.90;;;;;;4950808;28;20068;-76
2023/01/07 02:19:16;;;;;;;63.90;31.80;;;10.40;99.90;;;;;;4973113;28;20055;-82
2023/01/07 02:22:13;;;;;;;68.68;31.73;;;10.40;99.90;;;;;;4979866;28;20062;-76
2023/01/07 02:25:14;;;;;;;70.22;33.63;;;10.40;99.90;;;;;;4972771;28;20062;-76
2023/01/07 02:27:48;;;;;;;64.25;31.77;;;10.40;99.90;;;;;;4956829;28;20050;-76
2023/01/07 02:30:33;;;;;;;62.25;31.00;;;10.40;99.90;;;;;;4987742;28;20526;-77
2023/01/07 02:33:36;;;;;;;57.85;30.45;;;10.40;99.90;;;;;;4990813;28;20042;-75
2023/01/07 02:36:13;;;;;;;52.20;30.17;;;10.40;99.90;;;;;;4981770;28;20050;-76
2023/01/07 02:39:07;;;;;;;59.50;32.15;;;10.40;99.90;;;;;;4974211;28;20136;-81
2023/01/07 02:41:58;;;;;;;52.15;30.65;;;10.40;99.90;;;;;;4980211;28;20050;-77
2023/01/07 02:44:28;;;;;;;61.15;33.13;;;10.40;99.90;;;;;;4983370;28;20786;-78
2023/01/07 02:47:12;;;;;;;51.45;30.35;;;10.40;99.90;;;;;;4990141;28;20038;-76
2023/01/07 02:49:38;;;;;;;51.90;29.75;;;10.40;99.90;;;;;;4977897;28;20528;-76
2023/01/07 02:52:22;;;;;;;57.80;32.70;;;10.40;99.90;;;;;;4970476;28;20086;-77
2023/01/07 02:55:06;;;;;;;70.47;33.90;;;10.40;99.90;;;;;;4986119;28;20081;-76
2023/01/07 02:57:54;;;;;;;66.15;33.33;;;10.40;99.90;;;;;;4958467;28;20102;-79
2023/01/07 03:00:32;;;;;;;55.55;31.15;;;10.40;99.90;;;;;;4965509;28;20060;-76
2023/01/07 03:03:20;;;;;;;45.90;29.40;;;10.40;99.90;;;;;;4973296;28;20049;-76
2023/01/07 03:06:01;;;;;;;56.67;30.92;;;10.40;99.90;;;;;;4987196;28;20100;-77
2023/01/07 03:09:04;;;;;;;52.17;31.38;;;10.40;99.90;;;;;;4986624;28;20047;-76
2023/01/07 03:12:03;;;;;;;56.15;31.98;;;10.40;99.90;;;;;;4960424;28;20150;-76
2023/01/07 03:14:41;;;;;;;50.13;31.00;;;10.40;99.90;;;;;;4947542;28;20089;-76
2023/01/07 03:17:11;;;;;;;62.15;32.75;;;10.30;99.90;;;;;;4977080;28;20056;-78
2023/01/07 03:19:43;;;;;;;50.15;30.60;;;10.30;99.90;;;;;;4982548;28;20047;-76
2023/01/07 03:22:09;;;;;;;51.42;30.75;;;10.30;99.90;;;;;;4984422;28;20125;-76
2023/01/07 03:24:37;;;;;;;47.63;29.75;;;10.30;99.90;;;;;;4973111;28;20046;-76
2023/01/07 03:27:05;;;;;;;45.15;29.40;;;10.30;99.90;;;;;;4985904;28;20050;-76
2023/01/07 03:29:31;;;;;;;40.67;28.15;;;10.30;99.90;;;;;;4982865;28;20046;-76
2023/01/07 03:31:59;;;;;;;43.05;28.70;;;10.30;99.90;;;;;;4986040;28;20560;-78
2023/01/07 03:34:27;;;;;;;39.97;27.67;;;10.30;99.90;;;;;;4981260;28;20451;-76
2023/01/07 03:36:58;;;;;;;42.13;28.05;;;10.30;99.90;;;;;;4980018;28;20409;-78
2023/01/07 03:39:27;;;;;;;41.60;27.55;;;10.30;99.90;;;;;;4965373;28;20847;-76
2023/01/07 03:44:38;;;;;;;42.25;26.23;;;10.30;99.90;;;;;;4986182;28;20485;-76
2023/01/07 03:47:04;;;;;;;43.60;27.58;;;10.20;99.90;;;;;;4986686;28;20050;-75
2023/01/07 03:49:31;;;;;;;41.08;28.05;;;10.20;99.90;;;;;;4956427;28;20051;-76
2023/01/07 03:51:57;;;;;;;47.00;28.98;;;10.10;99.90;;;;;;4942455;28;20055;-76
2023/01/07 03:54:23;;;;;;;49.20;28.38;;;10.10;99.90;;;;;;4969626;28;20109;-75
2023/01/07 03:56:48;;;;;;;40.42;26.25;;;10.10;99.90;;;;;;4953492;28;20046;-82
2023/01/07 03:59:14;;;;;;;38.70;26.10;;;10.00;99.90;;;;;;4949616;28;20528;-76
2023/01/07 04:01:40;;;;;;;43.22;26.45;;;10.00;99.90;;;;;;4980951;28;20117;-76
2023/01/07 04:04:06;;;;;;;41.72;26.65;;;9.90;99.90;;;;;;4953450;28;20096;-76
2023/01/07 04:06:31;;;;;;;35.92;25.67;;;9.80;99.90;;;;;;4955502;28;20054;-78
2023/01/07 04:08:57;;;;;;;41.40;26.05;;;9.80;99.90;;;;;;4946637;28;20038;-78
2023/01/07 04:11:23;;;;;;;42.15;25.25;;;9.80;99.90;;;;;;4970019;28;20556;-76
2023/01/07 04:13:49;;;;;;;39.83;25.35;;;9.90;99.90;;;;;;4956256;28;20044;-75
2023/01/07 04:16:14;;;;;;;40.15;24.88;;;9.90;99.90;;;;;;4978114;28;20101;-77
2023/01/07 04:18:40;;;;;;;38.50;26.42;;;9.90;99.90;;;;;;4983100;28;20500;-76
2023/01/07 04:21:06;;;;;;;36.97;25.05;;;9.90;99.90;;;;;;4964781;28;20053;-77
2023/01/07 04:23:31;;;;;;;41.35;25.38;;;9.90;99.90;;;;;;4969473;28;20065;-77
2023/01/07 04:25:57;;;;;;;39.75;24.83;;;10.00;99.90;;;;;;4971973;28;20071;-76
2023/01/07 04:28:23;;;;;;;34.10;24.55;;;9.90;99.90;;;;;;4986881;28;20049;-77
2023/01/07 04:30:48;;;;;;;37.50;25.02;;;9.90;99.90;;;;;;4989066;28;20109;-76
2023/01/07 04:33:14;;;;;;;35.92;23.55;;;9.90;99.90;;;;;;4953126;28;20070;-77
2023/01/07 04:35:40;;;;;;;33.63;24.15;;;9.90;99.90;;;;;;4975351;28;20043;-76
2023/01/07 04:38:05;;;;;;;39.83;24.42;;;9.90;99.90;;;;;;4980046;28;20529;-79
2023/01/07 04:40:31;;;;;;;35.10;22.95;;;9.90;99.90;;;;;;4967297;28;20053;-76
2023/01/07 04:42:57;;;;;;;31.45;23.02;;;9.90;99.90;;;;;;4971408;28;20046;-83
2023/01/07 04:45:22;;;;;;;35.72;24.15;;;9.90;99.90;;;;;;4981853;28;20074;-76
2023/01/07 04:47:48;;;;;;;34.80;23.17;;;9.90;99.90;;;;;;4988129;28;20042;-76
2023/01/07 04:50:14;;;;;;;35.08;23.77;;;9.80;99.90;;;;;;4972133;28;20133;-78
2023/01/07 04:52:40;;;;;;;29.30;22.60;;;9.80;99.90;;;;;;4972564;28;20050;-77
2023/01/07 04:55:06;;;;;;;31.95;22.05;;;9.80;99.90;;;;;;4954520;28;20448;-78
2023/01/07 04:57:32;;;;;;;32.60;22.35;;;9.90;99.90;;;;;;4954356;28;20034;-76
2023/01/07 04:59:58;;;;;;;29.17;21.13;;;9.90;99.90;;;;;;4978908;28;20043;-82
2023/01/07 05:02:23;;;;;;;33.20;22.67;;;9.90;99.90;;;;;;4986096;28;20046;-76
2023/01/07 05:04:49;;;;;;;29.20;19.90;;;9.90;99.90;;;;;;4962481;28;20497;-77
2023/01/07 05:07:15;;;;;;;31.95;21.52;;;9.90;99.90;;;;;;4969802;28;20047;-77
2023/01/07 05:09:40;;;;;;;30.30;20.92;;;9.90;99.90;;;;;;4964139;28;20559;-78
2023/01/07 05:12:06;;;;;;;24.55;18.45;;;9.90;99.90;;;;;;4955589;28;20125;-76
2023/01/07 05:14:32;;;;;;;25.67;18.60;;;9.90;99.90;;;;;;4969798;28;20051;-76
2023/01/07 05:16:58;;;;;;;28.60;20.73;;;9.90;99.90;;;;;;4966959;28;20133;-76
2023/01/07 05:19:23;;;;;;;26.95;19.50;;;9.90;99.90;;;;;;4944629;28;20085;-76
2023/01/07 05:21:49;;;;;;;29.27;19.70;;;9.90;99.90;;;;;;4954517;28;20054;-77
2023/01/07 05:24:15;;;;;;;24.40;17.95;;;9.90;99.90;;;;;;4939329;28;20109;-78
2023/01/07 05:26:42;;;;;;;24.90;18.65;;;9.90;99.90;;;;;;4946015;28;20072;-77
2023/01/07 05:29:09;;;;;;;26.25;18.92;;;9.90;99.90;;;;;;4988123;28;20042;-76
2023/01/07 05:31:34;;;;;;;26.58;18.05;;;9.90;99.90;;;;;;4987669;28;20105;-80
2023/01/07 05:34:00;;;;;;;24.00;17.75;;;9.90;99.90;;;;;;4952610;28;20054;-76
2023/01/07 05:36:26;;;;;;;24.92;17.40;;;9.90;99.90;;;;;;4986737;28;20141;-77
2023/01/07 05:38:51;;;;;;;21.92;16.73;;;9.90;99.90;;;;;;4975338;28;20120;-76
2023/01/07 05:41:17;;;;;;;22.08;16.40;;;9.90;99.90;;;;;;4959339;28;20042;-77
2023/01/07 05:43:43;;;;;;;24.58;16.40;;;9.90;99.90;;;;;;4981199;28;20058;-76
2023/01/07 05:46:08;;;;;;;19.80;15.02;;;9.90;99.90;;;;;;4985741;28;20048;-77
2023/01/07 05:48:34;;;;;;;21.30;15.70;;;9.90;99.90;;;;;;4968094;28;20132;-77
2023/01/07 05:51:00;;;;;;;22.38;15.75;;;9.90;99.90;;;;;;4974885;28;20496;-77
2023/01/07 05:53:26;;;;;;;22.92;16.30;;;9.90;99.90;;;;;;4958943;28;20054;-78
2023/01/07 05:55:59;;;;;;;26.35;16.85;;;9.90;99.90;;;;;;4975827;28;20061;-77
2023/01/07 05:58:26;;;;;;;22.83;16.48;;;9.90;99.90;;;;;;4963701;28;20057;-78
2023/01/07 06:00:52;;;;;;;19.75;14.43;;;9.90;99.90;;;;;;4958072;28;20129;-77
2023/01/07 06:03:18;;;;;;;21.15;14.10;;;9.90;99.90;;;;;;4972714;28;20070;-79
2023/01/07 06:05:44;;;;;;;19.77;14.38;;;9.80;99.90;;;;;;4970851;28;20109;-77
2023/01/07 06:08:10;;;;;;;17.63;14.02;;;9.90;99.90;;;;;;4951117;28;20054;-77
2023/01/07 06:10:35;;;;;;;19.45;13.98;;;9.90;99.90;;;;;;4971851;28;20108;-77
2023/01/07 06:13:01;;;;;;;19.83;14.77;;;9.80;99.90;;;;;;4972951;28;20058;-77
2023/01/07 06:15:27;;;;;;;19.17;14.25;;;9.90;99.90;;;;;;4940995;28;20589;-77
2023/01/07 06:17:53;;;;;;;18.77;13.88;;;9.80;99.90;;;;;;4967216;28;20046;-79
2023/01/07 06:20:19;;;;;;;21.50;14.13;;;9.80;99.90;;;;;;4974721;28;20775;-76
2023/01/07 06:22:44;;;;;;;19.50;12.73;;;9.80;99.90;;;;;;4972944;28;20055;-77
2023/01/07 06:25:11;;;;;;;22.02;14.25;;;9.80;99.90;;;;;;4972291;28;20715;-83
2023/01/07 06:27:37;;;;;;;17.10;13.65;;;9.80;99.90;;;;;;4991132;28;20171;-77
2023/01/07 06:30:04;;;;;;;22.80;14.85;;;9.80;99.90;;;;;;4988142;28;20132;-77
2023/01/07 06:32:30;;;;;;;17.85;13.18;;;9.80;99.90;;;;;;4951232;28;20699;-77
2023/01/07 06:34:55;;;;;;;16.55;12.82;;;9.80;99.90;;;;;;4971761;28;20130;-77
2023/01/07 06:37:21;;;;;;;17.90;12.48;;;9.80;99.90;;;;;;4979216;28;20058;-77
2023/01/07 06:39:47;;;;;;;18.33;12.50;;;9.80;99.90;;;;;;4989116;28;20133;-77
2023/01/07 06:42:12;;;;;;;16.35;13.00;;;9.80;99.90;;;;;;4958287;28;20128;-83
2023/01/07 06:44:38;;;;;;;17.23;12.52;;;9.80;99.90;;;;;;4971773;28;20516;-77
2023/01/07 06:47:04;;;;;;;20.02;12.13;;;9.80;99.90;;;;;;4980363;28;20514;-77
2023/01/07 06:49:29;;;;;;;17.58;12.00;;;9.80;99.90;;;;;;4985219;28;20070;-78
2023/01/07 06:51:55;;;;;;;16.95;12.10;;;9.80;99.90;;;;;;5003084;28;20060;-77
2023/01/07 06:54:21;;;;;;;16.55;12.23;;;9.70;99.90;;;;;;4980563;28;20069;-78
2023/01/07 06:56:47;;;;;;;15.27;10.88;;;9.80;99.90;;;;;;4993636;28;20380;-77
2023/01/07 06:59:12;;;;;;;13.73;11.55;;;9.80;99.90;;;;;;4993621;28;20034;-82
2023/01/07 07:01:38;;;;;;;18.42;12.02;;;9.80;99.90;;;;;;4977699;28;20115;-77
2023/01/07 07:04:04;;;;;;;19.13;12.70;;;9.80;99.90;;;;;;4989214;28;20154;-76
2023/01/07 07:06:29;;;;;;;16.50;12.55;;;9.80;99.90;;;;;;4958277;28;20050;-78
2023/01/07 07:08:55;;;;;;;16.10;11.35;;;9.80;99.90;;;;;;4958719;28;20078;-77
2023/01/07 07:11:21;;;;;;;18.67;11.18;;;9.70;99.90;;;;;;4982140;28;20053;-78
2023/01/07 07:13:46;;;;;;;14.48;11.25;;;9.70;99.90;;;;;;4979575;28;20058;-78
2023/01/07 07:16:12;;;;;;;15.30;11.02;;;9.70;99.90;;;;;;4945680;28;20042;-77
2023/01/07 07:18:38;;;;;;;18.27;10.80;;;9.70;99.90;;;;;;4975340;28;20040;-80
2023/01/07 07:21:03;;;;;;;21.25;11.48;;;9.70;99.90;;;;;;4971776;28;20380;-79
2023/01/07 07:23:29;;;;;;;14.00;10.70;;;9.70;99.90;;;;;;4994296;28;20046;-81
2023/01/07 07:25:55;;;;;;;14.98;11.32;;;9.70;99.90;;;;;;4979256;28;20046;-81
2023/01/07 07:28:20;;;;;;;13.43;10.82;;;9.70;99.90;;;;;;4978411;28;20104;-79
2023/01/07 07:30:46;;;;;;;14.55;10.13;;;9.70;99.90;;;;;;4959855;28;20048;-82
2023/01/07 07:33:13;;;;;;;12.65;9.68;;;9.70;99.90;;;;;;4962797;28;20442;-79
2023/01/07 07:35:39;;;;;;;12.75;9.75;;;9.60;99.90;;;;;;4975425;28;20570;-79
2023/01/07 07:38:05;;;;;;;10.80;8.65;;;9.70;99.90;;;;;;4930272;28;20125;-80
2023/01/07 07:40:30;;;;;;;14.35;10.43;;;9.60;99.90;;;;;;4970050;28;20061;-79
2023/01/07 07:42:59;;;;;;;10.40;8.70;;;9.70;99.90;;;;;;4979146;28;20044;-79
2023/01/07 07:45:24;;;;;;;13.40;9.55;;;9.70;99.90;;;;;;4994994;28;20053;-80
2023/01/07 07:47:50;;;;;;;11.63;9.07;;;9.60;99.90;;;;;;4977380;28;20092;-80
2023/01/07 07:50:16;;;;;;;14.20;10.35;;;9.60;99.90;;;;;;4978697;28;20132;-79
2023/01/07 07:52:41;;;;;;;12.80;8.77;;;9.60;99.90;;;;;;4978444;28;20123;-79
2023/01/07 07:55:08;;;;;;;12.63;9.48;;;9.60;99.90;;;;;;4975252;28;20129;-79
2023/01/07 07:57:33;;;;;;;11.05;9.02;;;9.60;99.90;;;;;;4993808;28;20046;-81
2023/01/07 07:59:59;;;;;;;11.65;9.35;;;9.50;99.90;;;;;;5010977;28;20457;-80
2023/01/07 08:02:28;;;;;;;12.98;8.60;;;9.50;99.90;;;;;;4978200;28;20567;-81
2023/01/07 08:04:53;;;;;;;10.70;9.00;;;9.50;99.90;;;;;;4978690;28;20060;-79
2023/01/07 08:07:19;;;;;;;10.73;8.65;;;9.50;99.90;;;;;;4975050;28;20034;-79
2023/01/07 08:09:45;;;;;;;10.88;8.00;;;9.50;99.90;;;;;;4970045;28;20129;-79
2023/01/07 08:12:11;;;;;;;9.93;7.47;;;9.50;99.90;;;;;;4977960;28;20053;-79
2023/01/07 08:14:36;;;;;;;10.70;7.90;;;9.50;99.90;;;;;;4958491;28;20412;-79
2023/01/07 08:17:02;;;;;;;10.73;7.50;;;9.50;99.90;;;;;;4956888;28;20042;-79
2023/01/07 08:19:28;;;;;;;7.38;6.45;;;9.40;99.90;;;;;;4985478;28;20080;-81
2023/01/07 08:21:53;;;;;;;10.77;7.63;;;9.40;99.90;;;;;;4978056;28;20049;-79
2023/01/07 08:24:19;;;;;;;10.68;7.55;;;9.50;99.90;;;;;;4977616;28;20050;-80
2023/01/07 08:26:45;;;;;;;10.02;7.10;;;9.50;99.90;;;;;;4992277;28;20038;-80
2023/01/07 08:29:10;;;;;;;9.55;7.18;;;9.50;99.90;;;;;;4964295;28;20096;-80
2023/01/07 08:31:36;;;;;;;11.75;7.15;;;9.50;99.90;;;;;;4990470;28;20034;-80
2023/01/07 08:34:02;;;;;;;10.88;7.45;;;9.50;99.90;;;;;;4981433;28;20111;-79
2023/01/07 08:36:27;;;;;;;9.68;6.60;;;9.60;99.90;;;;;;4990271;28;20089;-82
2023/01/07 08:38:54;;;;;;;8.77;7.10;;;9.50;99.90;;;;;;4973270;28;20039;-79
2023/01/07 08:41:22;;;;;;;11.30;7.55;;;9.50;99.90;;;;;;4974012;28;20045;-79
2023/01/07 08:43:47;;;;;;;7.60;6.00;;;9.50;99.90;;;;;;4975559;28;20104;-79
2023/01/07 08:46:13;;;;;;;8.73;6.38;;;9.50;99.90;;;;;;4992734;28;20046;-79
2023/01/07 08:48:39;;;;;;;8.75;6.65;;;9.40;99.90;;;;;;4964988;28;20125;-79
2023/01/07 08:51:05;;;;;;;7.72;5.95;;;9.40;99.90;;;;;;4977762;28;20054;-81
2023/01/07 08:53:31;;;;;;;11.05;6.70;;;9.30;99.90;;;;;;4960174;28;20098;-80
2023/01/07 08:55:57;;;;;;;8.93;6.70;;;9.30;99.90;;;;;;4992583;28;20112;-80
2023/01/07 08:58:24;;;;;;;9.55;6.70;;;9.30;99.90;;;;;;4992594;28;20042;-79
2023/01/07 09:00:51;;;;;;;9.27;6.75;;;9.20;99.90;;;;;;4976106;28;20108;-79
2023/01/07 09:03:17;;;;;;;10.57;7.53;;;9.20;99.90;;;;;;4974123;28;20125;-79
2023/01/07 09:05:42;;;;;;;11.07;7.20;;;9.10;99.90;;;;;;4990379;28;20126;-79
2023/01/07 09:08:08;;;;;;;9.65;7.00;;;9.10;99.90;;;;;;4982607;28;20058;-80
2023/01/07 09:10:34;;;;;;;11.23;7.13;;;9.20;99.90;;;;;;4987210;28;20377;-79
2023/01/07 09:12:59;;;;;;;10.93;7.38;;;9.10;99.90;;;;;;4952054;28;20535;-79
2023/01/07 09:15:25;;;;;;;10.57;6.57;;;9.00;99.90;;;;;;4974318;28;20425;-79
2023/01/07 09:17:51;;;;;;;12.00;6.38;;;9.00;99.90;;;;;;4976749;28;20043;-80
2023/01/07 09:20:18;;;;;;;9.38;6.80;;;9.00;99.90;;;;;;4998499;28;20048;-80
2023/01/07 09:22:43;;;;;;;13.65;6.47;;;9.00;99.90;;;;;;4976644;28;20491;-79
2023/01/07 09:25:09;;;;;;;7.50;6.28;;;8.90;99.90;;;;;;4961414;28;20124;-79
2023/01/07 09:27:36;;;;;;;8.82;6.28;;;9.00;99.90;;;;;;4979409;28;20503;-79
2023/01/07 09:30:02;;;;;;;8.88;6.35;;;8.90;99.90;;;;;;4977775;28;20086;-79
2023/01/07 09:32:28;;;;;;;8.52;6.07;;;8.90;99.90;;;;;;4955453;28;20076;-79
2023/01/07 09:34:54;;;;;;;7.30;6.30;;;8.90;99.90;;;;;;4978260;28;20132;-78
2023/01/07 09:37:21;;;;;;;8.60;6.10;;;8.90;99.90;;;;;;4996477;28;20125;-79
2023/01/07 09:39:46;;;;;;;8.52;6.20;;;8.90;99.90;;;;;;4978101;28;20057;-79
2023/01/07 09:42:23;;;;;;;9.25;5.82;;;8.80;99.90;;;;;;4997237;28;20050;-79
2023/01/07 09:45:36;;;;;;;6.90;5.78;;;8.90;99.90;;;;;;4996303;28;20519;-79
2023/01/07 09:48:20;;;;;;;8.10;5.93;;;8.90;99.90;;;;;;4953896;28;20053;-79
2023/01/07 09:51:14;;;;;;;7.22;5.30;;;8.90;99.90;;;;;;4991985;28;20474;-81
2023/01/07 09:53:48;;;;;;;7.45;5.68;;;9.00;99.90;;;;;;4989530;28;20049;-80
2023/01/07 09:56:25;;;;;;;9.40;6.30;;;9.00;99.90;;;;;;4999902;28;20041;-79
2023/01/07 09:58:52;;;;;;;9.07;5.70;;;9.00;99.90;;;;;;4982359;28;20046;-80
2023/01/07 10:01:39;;;;;;;6.88;4.88;;;9.00;99.90;;;;;;4977593;28;20037;-81
2023/01/07 10:04:14;;;;;;;6.97;4.63;;;9.00;99.90;;;;;;4980628;28;20054;-79
2023/01/07 10:06:52;;;;;;;7.60;5.65;;;9.00;99.90;;;;;;4996649;28;20053;-84
2023/01/07 10:09:27;;;;;;;9.93;5.65;;;9.10;99.90;;;;;;4989299;28;20046;-79
2023/01/07 10:12:11;;;;;;;8.13;5.90;;;9.10;99.90;;;;;;4996873;28;20053;-78
2023/01/07 10:15:00;;;;;;;5.63;4.80;;;9.10;99.90;;;;;;4980815;28;20057;-79
2023/01/07 10:17:29;;;;;;;7.05;5.03;;;9.10;99.90;;;;;;4986594;28;20058;-79
2023/01/07 10:20:20;;;;;;;10.30;5.75;;;9.20;99.90;;;;;;5006689;28;20049;-79
2023/01/07 10:23:03;;;;;;;6.65;5.43;;;9.30;99.90;;;;;;4996058;28;20053;-79
2023/01/07 10:25:52;;;;;;;5.00;4.20;;;9.40;99.90;;;;;;5014313;28;20054;-79
2023/01/07 10:28:42;;;;;;;6.93;4.20;;;9.50;99.90;;;;;;5008679;28;20049;-80
2023/01/07 10:31:16;;;;;;;6.10;4.03;;;9.60;99.90;;;;;;4980182;28;20483;-79
2023/01/07 10:33:45;;;;;;;4.47;3.88;;;9.60;99.90;;;;;;4996208;28;20054;-85
2023/01/07 10:36:31;;;;;;;7.13;4.45;;;9.70;99.90;;;;;;4996177;28;20074;-77
2023/01/07 10:39:28;;;;;;;6.28;3.78;;;9.70;99.90;;;;;;4995347;28;20643;-80
2023/01/07 10:41:56;;;;;;;6.28;3.85;;;9.80;99.90;;;;;;4994843;28;20052;-80
2023/01/07 10:44:25;;;;;;;6.57;3.83;;;9.80;99.90;;;;;;4995308;28;20053;-78
2023/01/07 10:47:02;;;;;;;3.85;3.08;;;9.90;99.90;;;;;;4996162;28;20521;-79
2023/01/07 10:49:37;;;;;;;5.07;3.08;;;9.90;99.90;;;;;;4978264;28;20051;-78
2023/01/07 10:52:17;;;;;;;3.70;2.75;;;9.90;99.90;;;;;;4960481;28;20078;-78
2023/01/07 10:54:48;;;;;;;5.90;3.40;;;9.90;99.90;;;;;;4996130;28;20048;-84
2023/01/07 10:57:23;;;;;;;4.43;2.85;;;10.00;99.90;;;;;;4979576;28;20061;-77
2023/01/07 10:59:56;;;;;;;4.18;3.08;;;10.00;99.90;;;;;;4995705;28;20045;-78
2023/01/07 11:02:25;;;;;;;9.27;5.10;;;10.00;99.90;;;;;;4990185;28;20058;-78
2023/01/07 11:04:56;;;;;;;5.82;3.35;;;10.10;99.90;;;;;;4974462;28;20058;-79
2023/01/07 11:07:45;;;;;;;5.03;2.65;;;10.20;99.90;;;;;;4993800;28;20058;-78
2023/01/07 11:10:21;;;;;;;4.85;2.78;;;10.20;99.90;;;;;;4980651;28;20046;-78
2023/01/07 11:12:56;;;;;;;7.82;3.05;;;10.30;99.90;;;;;;4985362;28;20459;-84
2023/01/07 11:15:28;;;;;;;2.60;2.10;;;10.30;99.90;;;;;;4983112;28;20050;-78
2023/01/07 11:17:58;;;;;;;3.92;2.55;;;10.30;99.90;;;;;;4984768;28;20049;-77
2023/01/07 11:20:49;;;;;;;4.90;2.45;;;10.30;99.90;;;;;;4994027;28;20049;-78
2023/01/07 11:23:18;;;;;;;3.75;2.88;;;10.40;99.90;;;;;;4994217;28;20054;-78
2023/01/07 11:25:43;;;;;;;4.53;2.40;;;10.40;99.90;;;;;;4995254;28;20054;-78
2023/01/07 11:28:16;;;;;;;4.47;3.08;;;10.40;99.90;;;;;;5010204;28;20046;-78
2023/01/07 11:30:43;;;;;;;3.65;2.88;;;10.40;99.90;;;;;;5002282;28;20100;-78
2023/01/07 11:33:20;;;;;;;3.92;2.88;;;10.40;99.90;;;;;;4991079;28;20281;-78
2023/01/07 11:35:54;;;;;;;4.47;3.15;;;10.40;99.90;;;;;;4975131;28;20112;-80
2023/01/07 11:38:40;;;;;;;3.33;2.53;;;10.40;99.90;;;;;;4981052;28;20042;-78
2023/01/07 11:41:20;;;;;;;4.10;2.90;;;10.40;99.90;;;;;;4976540;28;20060;-78
2023/01/07 11:43:53;;;;;;;3.33;2.13;;;10.50;99.90;;;;;;4975584;28;20050;-78
2023/01/07 11:46:21;;;;;;;4.10;2.40;;;10.50;99.90;;;;;;4990240;28;20050;-78
2023/01/07 11:49:01;;;;;;;4.88;2.35;;;10.50;99.90;;;;;;4994497;28;20438;-79
2023/01/07 11:51:40;;;;;;;2.95;2.53;;;10.50;99.90;;;;;;4978310;28;20133;-78
2023/01/07 11:54:27;;;;;;;3.33;2.00;;;10.50;99.90;;;;;;4971964;28;20065;-78
2023/01/07 11:57:28;;;;;;;3.13;2.17;;;10.60;99.90;;;;;;4998956;28;20043;-86
2023/01/07 12:00:14;;;;;;;2.55;2.13;;;10.50;99.90;;;;;;4983810;28;20038;-80
2023/01/07 12:02:40;;;;;;;2.33;2.00;;;10.60;99.90;;;;;;4975376;28;20569;-79
2023/01/07 12:05:17;;;;;;;5.70;2.50;;;10.70;99.90;;;;;;4990407;28;20054;-79
2023/01/07 12:07:49;;;;;;;2.17;1.95;;;10.70;99.90;;;;;;4975143;28;20058;-79
2023/01/07 12:10:34;;;;;;;2.83;1.75;;;10.70;99.90;;;;;;4986291;28;20043;-81
2023/01/07 12:13:15;;;;;;;2.88;1.95;;;10.80;99.90;;;;;;4974526;28;20137;-79
2023/01/07 12:15:50;;;;;;;1.90;1.70;;;10.80;99.90;;;;;;4972271;28;20050;-79
2023/01/07 12:18:32;;;;;;;3.33;2.00;;;10.80;99.90;;;;;;4987460;28;20040;-80
2023/01/07 12:21:26;;;;;;;3.47;2.03;;;10.80;99.90;;;;;;4983816;28;20046;-81
2023/01/07 12:24:12;;;;;;;2.92;1.58;;;10.80;99.90;;;;;;4975194;28;20065;-80
2023/01/07 12:27:11;;;;;;;2.30;1.67;;;10.70;99.90;;;;;;4991745;28;20053;-79
2023/01/07 12:30:01;;;;;;;4.22;1.70;;;10.80;99.90;;;;;;5007501;28;20563;-81
2023/01/07 12:33:02;;;;;;;4.38;2.20;;;10.70;99.90;;;;;;4977301;28;20054;-79
2023/01/07 12:35:41;;;;;;;2.95;2.30;;;10.50;99.90;;;;;;4968769;28;20049;-79
2023/01/07 12:38:24;;;;;;;1.98;1.63;;;10.40;99.90;;;;;;4982858;28;20044;-79
2023/01/07 12:41:01;;;;;;;2.83;1.52;;;10.30;99.90;;;;;;4977887;28;20042;-79
2023/01/07 12:43:53;;;;;;;3.88;1.63;;;10.20;99.90;;;;;;4973554;28;20593;-81
2023/01/07 12:46:20;;;;;;;5.22;2.38;;;10.20;99.90;;;;;;4965025;28;20644;-80
2023/01/07 12:48:56;;;;;;;2.63;1.70;;;10.10;99.90;;;;;;4971158;28;20079;-80
2023/01/07 12:51:29;;;;;;;4.72;1.85;;;10.10;99.90;;;;;;4937181;28;1099820;-79
2023/01/07 12:54:09;;;;;;;5.20;1.50;;;10.10;99.90;;;;;;4988925;28;20057;-79
2023/01/07 12:56:58;;;;;;;3.08;1.60;;;10.10;99.90;;;;;;4994430;28;20042;-80
2023/01/07 12:59:59;;;;;;;4.07;3.13;;;10.10;99.90;;;;;;4977119;28;20535;-79
2023/01/07 13:02:57;;;;;;;2.83;1.60;;;10.10;99.90;;;;;;4960362;28;20062;-80
2023/01/07 13:05:41;;;;;;;4.35;1.50;;;10.10;99.90;;;;;;4977410;28;20131;-78